Terminal Aerodrome Forecast
Issued by NWS Corpus Christi, TX

Home | Current Version | Previous Version | Text Only | Print | Product List | Glossary On
Versions: 1 2 3 4 5 6 7 8 9 10 11 12 13 14 15
000
FTUS44 KCRP 260532
TAFVCT
TAF
KVCT 260532Z 2606/2706 16015G20KT P6SM BKN015 WS017/18045KT
     FM260900 18014KT P6SM OVC009 WS017/21045KT
     FM261500 24018G25KT P6SM FEW025
     FM270000 35010KT P6SM SKC=

USA.gov is the U.S. government's official web portal to all federal, state and local government web resources and services.